sensor_id;sensor_type;location;lat;lon;timestamp;P1;durP1;ratioP1;P2;durP2;ratioP2
21202;SDS011;10759;51.982;9.232;2023-06-14T00:00:37;5.35;;;3.47;;
21202;SDS011;10759;51.982;9.232;2023-06-14T00:05:36;3.22;;;2.92;;
21202;SDS011;10759;51.982;9.232;2023-06-14T00:08:07;5.93;;;3.35;;
21202;SDS011;10759;51.982;9.232;2023-06-14T00:10:35;3.30;;;2.85;;
21202;SDS011;10759;51.982;9.232;2023-06-14T00:13:04;5.50;;;3.10;;
21202;SDS011;10759;51.982;9.232;2023-06-14T00:15:35;6.18;;;3.88;;
21202;SDS011;10759;51.982;9.232;2023-06-14T00:18:03;3.50;;;3.30;;
21202;SDS011;10759;51.982;9.232;2023-06-14T00:20:32;3.78;;;3.47;;
21202;SDS011;10759;51.982;9.232;2023-06-14T00:23:00;5.88;;;3.88;;
21202;SDS011;10759;51.982;9.232;2023-06-14T00:25:28;6.70;;;3.40;;
21202;SDS011;10759;51.982;9.232;2023-06-14T00:27:56;3.90;;;3.50;;
21202;SDS011;10759;51.982;9.232;2023-06-14T00:30:25;3.58;;;3.28;;
21202;SDS011;10759;51.982;9.232;2023-06-14T00:32:58;3.60;;;3.30;;
21202;SDS011;10759;51.982;9.232;2023-06-14T00:35:26;3.22;;;2.92;;
21202;SDS011;10759;51.982;9.232;2023-06-14T00:37:56;3.50;;;3.20;;
21202;SDS011;10759;51.982;9.232;2023-06-14T00:40:24;4.03;;;3.13;;
21202;SDS011;10759;51.982;9.232;2023-06-14T00:42:52;5.00;;;3.00;;
21202;SDS011;10759;51.982;9.232;2023-06-14T00:45:19;3.45;;;3.13;;
21202;SDS011;10759;51.982;9.232;2023-06-14T00:47:48;3.80;;;3.05;;
21202;SDS011;10759;51.982;9.232;2023-06-14T00:50:20;4.13;;;2.72;;
21202;SDS011;10759;51.982;9.232;2023-06-14T00:55:17;3.15;;;2.95;;
21202;SDS011;10759;51.982;9.232;2023-06-14T00:57:45;4.15;;;3.05;;
21202;SDS011;10759;51.982;9.232;2023-06-14T01:00:14;3.47;;;3.15;;
21202;SDS011;10759;51.982;9.232;2023-06-14T01:02:42;7.70;;;3.38;;
21202;SDS011;10759;51.982;9.232;2023-06-14T01:05:11;4.15;;;3.78;;
21202;SDS011;10759;51.982;9.232;2023-06-14T01:07:45;4.10;;;3.75;;
21202;SDS011;10759;51.982;9.232;2023-06-14T01:10:26;3.65;;;3.28;;
21202;SDS011;10759;51.982;9.232;2023-06-14T01:13:05;3.67;;;3.40;;
21202;SDS011;10759;51.982;9.232;2023-06-14T01:15:38;3.45;;;2.95;;
21202;SDS011;10759;51.982;9.232;2023-06-14T01:18:08;5.05;;;3.22;;
21202;SDS011;10759;51.982;9.232;2023-06-14T01:20:43;3.75;;;2.85;;
21202;SDS011;10759;51.982;9.232;2023-06-14T01:25:43;3.40;;;3.05;;
21202;SDS011;10759;51.982;9.232;2023-06-14T01:28:11;4.05;;;3.65;;
21202;SDS011;10759;51.982;9.232;2023-06-14T01:30:40;3.85;;;3.50;;
21202;SDS011;10759;51.982;9.232;2023-06-14T01:33:13;4.88;;;3.00;;
21202;SDS011;10759;51.982;9.232;2023-06-14T01:35:43;4.30;;;3.47;;
21202;SDS011;10759;51.982;9.232;2023-06-14T01:38:13;3.55;;;3.20;;
21202;SDS011;10759;51.982;9.232;2023-06-14T01:40:43;4.72;;;3.28;;
21202;SDS011;10759;51.982;9.232;2023-06-14T01:43:12;5.25;;;3.30;;
21202;SDS011;10759;51.982;9.232;2023-06-14T01:45:41;5.30;;;3.22;;
21202;SDS011;10759;51.982;9.232;2023-06-14T01:48:10;4.53;;;3.08;;
21202;SDS011;10759;51.982;9.232;2023-06-14T01:50:39;4.90;;;3.40;;
21202;SDS011;10759;51.982;9.232;2023-06-14T01:53:07;5.35;;;3.38;;
21202;SDS011;10759;51.982;9.232;2023-06-14T01:55:40;4.30;;;3.20;;
21202;SDS011;10759;51.982;9.232;2023-06-14T01:58:10;3.33;;;2.95;;
21202;SDS011;10759;51.982;9.232;2023-06-14T02:00:38;5.70;;;3.40;;
21202;SDS011;10759;51.982;9.232;2023-06-14T02:03:06;3.50;;;3.22;;
21202;SDS011;10759;51.982;9.232;2023-06-14T02:05:35;3.78;;;3.45;;
21202;SDS011;10759;51.982;9.232;2023-06-14T02:10:33;3.13;;;2.83;;
21202;SDS011;10759;51.982;9.232;2023-06-14T02:13:03;4.93;;;2.90;;
21202;SDS011;10759;51.982;9.232;2023-06-14T02:15:31;3.75;;;3.03;;
21202;SDS011;10759;51.982;9.232;2023-06-14T02:18:02;3.92;;;3.63;;
21202;SDS011;10759;51.982;9.232;2023-06-14T02:20:32;3.97;;;3.15;;
21202;SDS011;10759;51.982;9.232;2023-06-14T02:23:00;8.18;;;3.22;;
21202;SDS011;10759;51.982;9.232;2023-06-14T02:27:58;3.10;;;2.85;;
21202;SDS011;10759;51.982;9.232;2023-06-14T02:30:27;6.88;;;2.63;;
21202;SDS011;10759;51.982;9.232;2023-06-14T02:32:55;3.42;;;3.00;;
21202;SDS011;10759;51.982;9.232;2023-06-14T02:35:23;3.17;;;2.97;;
21202;SDS011;10759;51.982;9.232;2023-06-14T02:37:54;3.30;;;2.90;;
21202;SDS011;10759;51.982;9.232;2023-06-14T02:40:23;5.78;;;3.28;;
21202;SDS011;10759;51.982;9.232;2023-06-14T02:42:51;3.60;;;3.30;;
21202;SDS011;10759;51.982;9.232;2023-06-14T02:45:19;3.55;;;2.92;;
21202;SDS011;10759;51.982;9.232;2023-06-14T02:47:48;5.97;;;3.30;;
21202;SDS011;10759;51.982;9.232;2023-06-14T02:50:17;3.10;;;2.80;;
21202;SDS011;10759;51.982;9.232;2023-06-14T02:52:45;8.38;;;3.53;;
21202;SDS011;10759;51.982;9.232;2023-06-14T02:55:13;3.33;;;3.03;;
21202;SDS011;10759;51.982;9.232;2023-06-14T02:57:42;3.95;;;3.03;;
21202;SDS011;10759;51.982;9.232;2023-06-14T03:00:10;3.75;;;3.45;;
21202;SDS011;10759;51.982;9.232;2023-06-14T03:02:42;6.05;;;3.38;;
21202;SDS011;10759;51.982;9.232;2023-06-14T03:05:13;3.58;;;3.28;;
21202;SDS011;10759;51.982;9.232;2023-06-14T03:07:41;4.13;;;3.75;;
21202;SDS011;10759;51.982;9.232;2023-06-14T03:12:42;3.92;;;3.63;;
21202;SDS011;10759;51.982;9.232;2023-06-14T03:15:11;6.80;;;3.38;;
21202;SDS011;10759;51.982;9.232;2023-06-14T03:17:43;5.28;;;2.90;;
21202;SDS011;10759;51.982;9.232;2023-06-14T03:20:15;3.25;;;2.95;;
21202;SDS011;10759;51.982;9.232;2023-06-14T03:22:45;4.25;;;3.78;;
21202;SDS011;10759;51.982;9.232;2023-06-14T03:25:14;3.13;;;2.92;;
21202;SDS011;10759;51.982;9.232;2023-06-14T03:27:44;4.10;;;3.22;;
21202;SDS011;10759;51.982;9.232;2023-06-14T03:30:12;5.10;;;3.70;;
21202;SDS011;10759;51.982;9.232;2023-06-14T03:32:44;3.40;;;3.20;;
21202;SDS011;10759;51.982;9.232;2023-06-14T03:35:12;4.63;;;3.45;;
21202;SDS011;10759;51.982;9.232;2023-06-14T03:37:46;6.28;;;3.65;;
21202;SDS011;10759;51.982;9.232;2023-06-14T03:40:15;3.53;;;3.22;;
21202;SDS011;10759;51.982;9.232;2023-06-14T03:42:49;3.83;;;3.42;;
21202;SDS011;10759;51.982;9.232;2023-06-14T03:45:17;3.65;;;3.42;;
21202;SDS011;10759;51.982;9.232;2023-06-14T03:47:46;4.00;;;3.40;;
21202;SDS011;10759;51.982;9.232;2023-06-14T03:50:15;3.90;;;3.60;;
21202;SDS011;10759;51.982;9.232;2023-06-14T03:52:43;5.07;;;3.47;;
21202;SDS011;10759;51.982;9.232;2023-06-14T03:55:13;5.65;;;3.53;;
21202;SDS011;10759;51.982;9.232;2023-06-14T03:57:46;4.10;;;3.00;;
21202;SDS011;10759;51.982;9.232;2023-06-14T04:02:44;6.38;;;3.40;;
21202;SDS011;10759;51.982;9.232;2023-06-14T04:05:12;4.22;;;3.80;;
21202;SDS011;10759;51.982;9.232;2023-06-14T04:07:46;3.90;;;3.60;;
21202;SDS011;10759;51.982;9.232;2023-06-14T04:10:16;4.03;;;2.92;;
21202;SDS011;10759;51.982;9.232;2023-06-14T04:12:46;3.85;;;3.05;;
21202;SDS011;10759;51.982;9.232;2023-06-14T04:15:16;3.42;;;3.15;;
21202;SDS011;10759;51.982;9.232;2023-06-14T04:17:50;4.88;;;3.00;;
21202;SDS011;10759;51.982;9.232;2023-06-14T04:20:21;5.20;;;3.20;;
21202;SDS011;10759;51.982;9.232;2023-06-14T04:22:50;3.33;;;2.95;;
21202;SDS011;10759;51.982;9.232;2023-06-14T04:25:21;3.17;;;2.88;;
21202;SDS011;10759;51.982;9.232;2023-06-14T04:27:52;3.42;;;2.83;;
21202;SDS011;10759;51.982;9.232;2023-06-14T04:30:21;3.25;;;2.97;;
21202;SDS011;10759;51.982;9.232;2023-06-14T04:32:54;5.82;;;3.17;;
21202;SDS011;10759;51.982;9.232;2023-06-14T04:35:23;2.90;;;2.70;;
21202;SDS011;10759;51.982;9.232;2023-06-14T04:40:23;3.72;;;2.90;;
21202;SDS011;10759;51.982;9.232;2023-06-14T04:42:51;3.15;;;2.70;;
21202;SDS011;10759;51.982;9.232;2023-06-14T04:45:21;3.25;;;2.80;;
21202;SDS011;10759;51.982;9.232;2023-06-14T04:47:50;8.60;;;2.90;;
21202;SDS011;10759;51.982;9.232;2023-06-14T04:50:25;5.07;;;2.40;;
21202;SDS011;10759;51.982;9.232;2023-06-14T04:52:53;3.05;;;2.78;;
21202;SDS011;10759;51.982;9.232;2023-06-14T04:55:21;4.40;;;2.58;;
21202;SDS011;10759;51.982;9.232;2023-06-14T04:57:52;3.03;;;2.72;;
21202;SDS011;10759;51.982;9.232;2023-06-14T05:00:21;2.63;;;2.42;;
21202;SDS011;10759;51.982;9.232;2023-06-14T05:02:49;6.05;;;2.47;;
21202;SDS011;10759;51.982;9.232;2023-06-14T05:05:20;4.10;;;2.65;;
21202;SDS011;10759;51.982;9.232;2023-06-14T05:07:48;2.75;;;2.55;;
21202;SDS011;10759;51.982;9.232;2023-06-14T05:10:17;3.90;;;2.70;;
21202;SDS011;10759;51.982;9.232;2023-06-14T05:12:45;2.85;;;2.25;;
21202;SDS011;10759;51.982;9.232;2023-06-14T05:15:18;2.60;;;2.20;;
21202;SDS011;10759;51.982;9.232;2023-06-14T05:17:47;4.10;;;2.72;;
21202;SDS011;10759;51.982;9.232;2023-06-14T05:20:21;3.90;;;2.97;;
21202;SDS011;10759;51.982;9.232;2023-06-14T05:22:51;2.60;;;2.40;;
21202;SDS011;10759;51.982;9.232;2023-06-14T05:25:20;3.67;;;2.70;;
21202;SDS011;10759;51.982;9.232;2023-06-14T05:27:48;2.35;;;2.15;;
21202;SDS011;10759;51.982;9.232;2023-06-14T05:30:18;2.70;;;2.30;;
21202;SDS011;10759;51.982;9.232;2023-06-14T05:32:46;2.23;;;2.03;;
21202;SDS011;10759;51.982;9.232;2023-06-14T05:35:14;2.90;;;2.60;;
21202;SDS011;10759;51.982;9.232;2023-06-14T05:37:43;2.22;;;2.08;;
21202;SDS011;10759;51.982;9.232;2023-06-14T05:40:11;2.63;;;2.40;;
21202;SDS011;10759;51.982;9.232;2023-06-14T05:42:39;2.47;;;2.28;;
21202;SDS011;10759;51.982;9.232;2023-06-14T05:45:07;2.42;;;2.22;;
21202;SDS011;10759;51.982;9.232;2023-06-14T05:47:37;2.95;;;2.30;;
21202;SDS011;10759;51.982;9.232;2023-06-14T05:50:05;5.32;;;2.83;;
21202;SDS011;10759;51.982;9.232;2023-06-14T05:52:33;3.15;;;2.22;;
21202;SDS011;10759;51.982;9.232;2023-06-14T05:55:01;2.72;;;2.40;;
21202;SDS011;10759;51.982;9.232;2023-06-14T05:57:29;3.40;;;2.13;;
21202;SDS011;10759;51.982;9.232;2023-06-14T05:59:57;2.55;;;2.35;;
21202;SDS011;10759;51.982;9.232;2023-06-14T06:02:25;2.90;;;2.70;;
21202;SDS011;10759;51.982;9.232;2023-06-14T06:04:55;2.72;;;2.38;;
21202;SDS011;10759;51.982;9.232;2023-06-14T06:07:22;4.72;;;2.63;;
21202;SDS011;10759;51.982;9.232;2023-06-14T06:09:50;2.85;;;2.65;;
21202;SDS011;10759;51.982;9.232;2023-06-14T06:12:18;3.20;;;2.30;;
21202;SDS011;10759;51.982;9.232;2023-06-14T06:14:46;3.53;;;2.33;;
21202;SDS011;10759;51.982;9.232;2023-06-14T06:17:14;2.50;;;2.30;;
21202;SDS011;10759;51.982;9.232;2023-06-14T06:19:42;2.45;;;2.17;;
21202;SDS011;10759;51.982;9.232;2023-06-14T06:22:11;2.80;;;2.55;;
21202;SDS011;10759;51.982;9.232;2023-06-14T06:24:39;3.35;;;2.67;;
21202;SDS011;10759;51.982;9.232;2023-06-14T06:27:09;2.80;;;2.60;;
21202;SDS011;10759;51.982;9.232;2023-06-14T06:29:38;3.22;;;2.80;;
21202;SDS011;10759;51.982;9.232;2023-06-14T06:32:07;3.80;;;2.30;;
21202;SDS011;10759;51.982;9.232;2023-06-14T06:34:35;3.17;;;2.92;;
21202;SDS011;10759;51.982;9.232;2023-06-14T06:37:04;3.90;;;2.50;;
21202;SDS011;10759;51.982;9.232;2023-06-14T06:39:33;2.95;;;2.60;;
21202;SDS011;10759;51.982;9.232;2023-06-14T06:42:01;3.80;;;2.45;;
21202;SDS011;10759;51.982;9.232;2023-06-14T06:44:35;3.25;;;2.65;;
21202;SDS011;10759;51.982;9.232;2023-06-14T06:47:03;4.28;;;2.55;;
21202;SDS011;10759;51.982;9.232;2023-06-14T06:49:31;3.92;;;2.60;;
21202;SDS011;10759;51.982;9.232;2023-06-14T06:51:59;4.03;;;2.55;;
21202;SDS011;10759;51.982;9.232;2023-06-14T06:54:28;3.03;;;2.72;;
21202;SDS011;10759;51.982;9.232;2023-06-14T06:56:57;4.72;;;2.85;;
21202;SDS011;10759;51.982;9.232;2023-06-14T06:59:26;2.38;;;2.28;;
21202;SDS011;10759;51.982;9.232;2023-06-14T07:01:54;3.45;;;3.15;;
21202;SDS011;10759;51.982;9.232;2023-06-14T07:04:22;2.55;;;2.35;;
21202;SDS011;10759;51.982;9.232;2023-06-14T07:06:50;4.35;;;2.60;;
21202;SDS011;10759;51.982;9.232;2023-06-14T07:09:18;4.03;;;2.88;;
21202;SDS011;10759;51.982;9.232;2023-06-14T07:11:46;2.60;;;2.40;;
21202;SDS011;10759;51.982;9.232;2023-06-14T07:14:16;2.88;;;2.67;;
21202;SDS011;10759;51.982;9.232;2023-06-14T07:16:44;2.50;;;2.30;;
21202;SDS011;10759;51.982;9.232;2023-06-14T07:19:13;5.28;;;2.47;;
21202;SDS011;10759;51.982;9.232;2023-06-14T07:21:41;3.17;;;2.97;;
21202;SDS011;10759;51.982;9.232;2023-06-14T07:24:09;4.38;;;2.63;;
21202;SDS011;10759;51.982;9.232;2023-06-14T07:26:37;3.00;;;2.40;;
21202;SDS011;10759;51.982;9.232;2023-06-14T07:29:05;3.90;;;2.70;;
21202;SDS011;10759;51.982;9.232;2023-06-14T07:31:34;3.10;;;2.63;;
21202;SDS011;10759;51.982;9.232;2023-06-14T07:34:02;2.40;;;2.20;;
21202;SDS011;10759;51.982;9.232;2023-06-14T07:36:30;2.97;;;2.45;;
21202;SDS011;10759;51.982;9.232;2023-06-14T07:38:58;3.50;;;2.30;;
21202;SDS011;10759;51.982;9.232;2023-06-14T07:41:26;4.00;;;2.63;;
21202;SDS011;10759;51.982;9.232;2023-06-14T07:43:54;2.67;;;2.58;;
21202;SDS011;10759;51.982;9.232;2023-06-14T07:46:22;2.92;;;2.53;;
21202;SDS011;10759;51.982;9.232;2023-06-14T07:48:51;2.53;;;2.33;;
21202;SDS011;10759;51.982;9.232;2023-06-14T07:51:19;2.30;;;2.10;;
21202;SDS011;10759;51.982;9.232;2023-06-14T07:53:48;2.55;;;2.20;;
21202;SDS011;10759;51.982;9.232;2023-06-14T07:56:15;5.15;;;2.45;;
21202;SDS011;10759;51.982;9.232;2023-06-14T07:58:43;3.33;;;2.58;;
21202;SDS011;10759;51.982;9.232;2023-06-14T08:01:11;2.60;;;2.40;;
21202;SDS011;10759;51.982;9.232;2023-06-14T08:03:39;6.70;;;2.28;;
21202;SDS011;10759;51.982;9.232;2023-06-14T08:06:09;3.90;;;2.42;;
21202;SDS011;10759;51.982;9.232;2023-06-14T08:08:37;3.92;;;2.45;;
21202;SDS011;10759;51.982;9.232;2023-06-14T08:11:05;2.95;;;2.22;;
21202;SDS011;10759;51.982;9.232;2023-06-14T08:13:33;3.03;;;2.63;;
21202;SDS011;10759;51.982;9.232;2023-06-14T08:16:00;2.55;;;2.38;;
21202;SDS011;10759;51.982;9.232;2023-06-14T08:18:31;2.05;;;1.95;;
21202;SDS011;10759;51.982;9.232;2023-06-14T08:20:58;3.20;;;2.30;;
21202;SDS011;10759;51.982;9.232;2023-06-14T08:23:28;2.60;;;2.20;;
21202;SDS011;10759;51.982;9.232;2023-06-14T08:25:56;4.72;;;1.90;;
21202;SDS011;10759;51.982;9.232;2023-06-14T08:28:24;2.40;;;2.20;;
21202;SDS011;10759;51.982;9.232;2023-06-14T08:30:52;2.80;;;2.00;;
21202;SDS011;10759;51.982;9.232;2023-06-14T08:33:19;2.70;;;2.00;;
21202;SDS011;10759;51.982;9.232;2023-06-14T08:35:48;2.70;;;2.50;;
21202;SDS011;10759;51.982;9.232;2023-06-14T08:38:16;2.45;;;2.35;;
21202;SDS011;10759;51.982;9.232;2023-06-14T08:40:45;2.83;;;2.53;;
21202;SDS011;10759;51.982;9.232;2023-06-14T08:43:17;2.25;;;2.05;;
21202;SDS011;10759;51.982;9.232;2023-06-14T08:45:46;3.78;;;3.47;;
21202;SDS011;10759;51.982;9.232;2023-06-14T08:48:17;2.25;;;2.10;;
21202;SDS011;10759;51.982;9.232;2023-06-14T08:50:46;2.57;;;1.63;;
21202;SDS011;10759;51.982;9.232;2023-06-14T08:53:18;2.20;;;2.00;;
21202;SDS011;10759;51.982;9.232;2023-06-14T08:55:48;2.30;;;2.20;;
21202;SDS011;10759;51.982;9.232;2023-06-14T08:58:16;2.38;;;2.17;;
21202;SDS011;10759;51.982;9.232;2023-06-14T09:00:45;4.82;;;2.70;;
21202;SDS011;10759;51.982;9.232;2023-06-14T09:03:13;2.53;;;2.33;;
21202;SDS011;10759;51.982;9.232;2023-06-14T09:05:42;2.08;;;1.98;;
21202;SDS011;10759;51.982;9.232;2023-06-14T09:08:10;2.40;;;2.08;;
21202;SDS011;10759;51.982;9.232;2023-06-14T09:10:39;1.80;;;1.70;;
21202;SDS011;10759;51.982;9.232;2023-06-14T09:13:09;2.30;;;2.10;;
21202;SDS011;10759;51.982;9.232;2023-06-14T09:15:37;5.63;;;2.03;;
21202;SDS011;10759;51.982;9.232;2023-06-14T09:18:05;2.60;;;2.40;;
21202;SDS011;10759;51.982;9.232;2023-06-14T09:20:33;3.35;;;2.22;;
21202;SDS011;10759;51.982;9.232;2023-06-14T09:23:01;4.93;;;2.10;;
21202;SDS011;10759;51.982;9.232;2023-06-14T09:25:32;2.00;;;1.90;;
21202;SDS011;10759;51.982;9.232;2023-06-14T09:28:10;4.18;;;2.10;;
21202;SDS011;10759;51.982;9.232;2023-06-14T09:30:38;2.35;;;2.15;;
21202;SDS011;10759;51.982;9.232;2023-06-14T09:33:06;3.28;;;2.33;;
21202;SDS011;10759;51.982;9.232;2023-06-14T09:35:34;2.65;;;1.95;;
21202;SDS011;10759;51.982;9.232;2023-06-14T09:38:03;3.50;;;2.50;;
21202;SDS011;10759;51.982;9.232;2023-06-14T09:40:33;3.25;;;2.13;;
21202;SDS011;10759;51.982;9.232;2023-06-14T09:43:04;4.40;;;2.35;;
21202;SDS011;10759;51.982;9.232;2023-06-14T09:45:36;2.25;;;2.05;;
21202;SDS011;10759;51.982;9.232;2023-06-14T09:48:06;2.42;;;2.25;;
21202;SDS011;10759;51.982;9.232;2023-06-14T09:50:35;4.68;;;2.15;;
21202;SDS011;10759;51.982;9.232;2023-06-14T09:53:03;2.80;;;2.58;;
21202;SDS011;10759;51.982;9.232;2023-06-14T09:55:34;3.45;;;3.15;;
21202;SDS011;10759;51.982;9.232;2023-06-14T09:58:04;2.50;;;2.25;;
21202;SDS011;10759;51.982;9.232;2023-06-14T10:00:34;2.33;;;1.92;;
21202;SDS011;10759;51.982;9.232;2023-06-14T10:03:10;3.00;;;2.20;;
21202;SDS011;10759;51.982;9.232;2023-06-14T10:05:41;2.50;;;2.35;;
21202;SDS011;10759;51.982;9.232;2023-06-14T10:08:13;2.33;;;2.10;;
21202;SDS011;10759;51.982;9.232;2023-06-14T10:10:43;2.13;;;2.03;;
21202;SDS011;10759;51.982;9.232;2023-06-14T10:13:11;2.75;;;2.03;;
21202;SDS011;10759;51.982;9.232;2023-06-14T10:15:44;2.47;;;2.08;;
21202;SDS011;10759;51.982;9.232;2023-06-14T10:18:22;2.17;;;1.98;;
21202;SDS011;10759;51.982;9.232;2023-06-14T10:20:58;2.90;;;1.95;;
21202;SDS011;10759;51.982;9.232;2023-06-14T10:23:36;7.15;;;1.90;;
21202;SDS011;10759;51.982;9.232;2023-06-14T10:26:06;2.55;;;2.35;;
21202;SDS011;10759;51.982;9.232;2023-06-14T10:28:36;1.70;;;1.60;;
21202;SDS011;10759;51.982;9.232;2023-06-14T10:31:07;2.30;;;2.10;;
21202;SDS011;10759;51.982;9.232;2023-06-14T10:33:36;4.43;;;2.38;;
21202;SDS011;10759;51.982;9.232;2023-06-14T10:36:23;4.20;;;2.47;;
21202;SDS011;10759;51.982;9.232;2023-06-14T10:38:57;2.00;;;1.90;;
21202;SDS011;10759;51.982;9.232;2023-06-14T10:41:26;2.47;;;2.15;;
21202;SDS011;10759;51.982;9.232;2023-06-14T10:47:22;2.13;;;1.83;;
21202;SDS011;10759;51.982;9.232;2023-06-14T10:49:52;2.15;;;1.92;;
21202;SDS011;10759;51.982;9.232;2023-06-14T10:52:22;2.45;;;2.10;;
21202;SDS011;10759;51.982;9.232;2023-06-14T10:57:42;2.23;;;2.13;;
21202;SDS011;10759;51.982;9.232;2023-06-14T11:00:18;7.65;;;2.45;;
21202;SDS011;10759;51.982;9.232;2023-06-14T11:05:58;2.10;;;1.90;;
21202;SDS011;10759;51.982;9.232;2023-06-14T11:08:27;4.30;;;2.20;;
21202;SDS011;10759;51.982;9.232;2023-06-14T11:11:15;3.25;;;1.85;;
21202;SDS011;10759;51.982;9.232;2023-06-14T11:13:44;2.88;;;2.00;;
21202;SDS011;10759;51.982;9.232;2023-06-14T11:16:14;2.70;;;2.08;;
21202;SDS011;10759;51.982;9.232;2023-06-14T11:18:44;2.10;;;2.00;;
21202;SDS011;10759;51.982;9.232;2023-06-14T11:21:15;3.17;;;2.28;;
21202;SDS011;10759;51.982;9.232;2023-06-14T11:23:48;2.03;;;1.92;;
21202;SDS011;10759;51.982;9.232;2023-06-14T11:26:23;2.95;;;2.20;;
21202;SDS011;10759;51.982;9.232;2023-06-14T11:28:56;2.20;;;2.00;;
21202;SDS011;10759;51.982;9.232;2023-06-14T11:31:25;2.50;;;2.30;;
21202;SDS011;10759;51.982;9.232;2023-06-14T11:33:55;3.13;;;1.95;;
21202;SDS011;10759;51.982;9.232;2023-06-14T11:36:26;1.80;;;1.70;;
21202;SDS011;10759;51.982;9.232;2023-06-14T11:38:59;2.03;;;1.83;;
21202;SDS011;10759;51.982;9.232;2023-06-14T11:41:32;1.95;;;1.77;;
21202;SDS011;10759;51.982;9.232;2023-06-14T11:44:04;1.95;;;1.80;;
21202;SDS011;10759;51.982;9.232;2023-06-14T11:46:32;2.47;;;2.30;;
21202;SDS011;10759;51.982;9.232;2023-06-14T11:49:02;2.08;;;1.98;;
21202;SDS011;10759;51.982;9.232;2023-06-14T11:51:31;2.45;;;1.80;;
21202;SDS011;10759;51.982;9.232;2023-06-14T11:54:00;2.10;;;2.00;;
21202;SDS011;10759;51.982;9.232;2023-06-14T11:56:29;2.57;;;2.37;;
21202;SDS011;10759;51.982;9.232;2023-06-14T11:58:58;2.17;;;2.03;;
21202;SDS011;10759;51.982;9.232;2023-06-14T12:01:27;1.92;;;1.83;;
21202;SDS011;10759;51.982;9.232;2023-06-14T12:03:58;2.42;;;2.22;;
21202;SDS011;10759;51.982;9.232;2023-06-14T12:06:28;1.88;;;1.77;;
21202;SDS011;10759;51.982;9.232;2023-06-14T12:09:00;2.20;;;2.10;;
21202;SDS011;10759;51.982;9.232;2023-06-14T12:11:31;1.92;;;1.83;;
21202;SDS011;10759;51.982;9.232;2023-06-14T12:14:00;2.90;;;2.15;;
21202;SDS011;10759;51.982;9.232;2023-06-14T12:16:32;3.53;;;2.17;;
21202;SDS011;10759;51.982;9.232;2023-06-14T12:19:08;2.83;;;2.20;;
21202;SDS011;10759;51.982;9.232;2023-06-14T12:21:39;2.20;;;1.98;;
21202;SDS011;10759;51.982;9.232;2023-06-14T12:24:08;3.45;;;2.03;;
21202;SDS011;10759;51.982;9.232;2023-06-14T12:26:39;5.35;;;3.40;;
21202;SDS011;10759;51.982;9.232;2023-06-14T12:29:08;2.40;;;2.20;;
21202;SDS011;10759;51.982;9.232;2023-06-14T12:31:36;2.95;;;2.25;;
21202;SDS011;10759;51.982;9.232;2023-06-14T12:34:05;2.92;;;2.30;;
21202;SDS011;10759;51.982;9.232;2023-06-14T12:36:33;2.95;;;2.00;;
21202;SDS011;10759;51.982;9.232;2023-06-14T12:39:07;2.25;;;2.05;;
21202;SDS011;10759;51.982;9.232;2023-06-14T12:41:35;2.33;;;2.22;;
21202;SDS011;10759;51.982;9.232;2023-06-14T12:44:04;2.33;;;2.13;;
21202;SDS011;10759;51.982;9.232;2023-06-14T12:46:32;1.92;;;1.83;;
21202;SDS011;10759;51.982;9.232;2023-06-14T12:49:01;3.40;;;2.15;;
21202;SDS011;10759;51.982;9.232;2023-06-14T12:51:29;2.60;;;2.40;;
21202;SDS011;10759;51.982;9.232;2023-06-14T12:53:57;2.50;;;2.10;;
21202;SDS011;10759;51.982;9.232;2023-06-14T12:56:26;2.63;;;2.42;;
21202;SDS011;10759;51.982;9.232;2023-06-14T12:58:54;7.57;;;2.77;;
21202;SDS011;10759;51.982;9.232;2023-06-14T13:01:22;4.07;;;2.63;;
21202;SDS011;10759;51.982;9.232;2023-06-14T13:03:50;2.80;;;2.60;;
21202;SDS011;10759;51.982;9.232;2023-06-14T13:06:20;2.58;;;2.33;;
21202;SDS011;10759;51.982;9.232;2023-06-14T13:08:48;3.13;;;2.58;;
21202;SDS011;10759;51.982;9.232;2023-06-14T13:11:16;5.50;;;2.72;;
21202;SDS011;10759;51.982;9.232;2023-06-14T13:13:45;4.60;;;2.80;;
21202;SDS011;10759;51.982;9.232;2023-06-14T13:16:13;4.40;;;3.27;;
21202;SDS011;10759;51.982;9.232;2023-06-14T13:18:41;3.53;;;3.22;;
21202;SDS011;10759;51.982;9.232;2023-06-14T13:21:09;2.95;;;2.63;;
21202;SDS011;10759;51.982;9.232;2023-06-14T13:23:37;3.47;;;2.85;;
21202;SDS011;10759;51.982;9.232;2023-06-14T13:26:05;4.80;;;2.95;;
21202;SDS011;10759;51.982;9.232;2023-06-14T13:28:32;3.00;;;2.80;;
21202;SDS011;10759;51.982;9.232;2023-06-14T13:31:03;3.40;;;3.20;;
21202;SDS011;10759;51.982;9.232;2023-06-14T13:33:31;2.70;;;2.50;;
21202;SDS011;10759;51.982;9.232;2023-06-14T13:35:59;5.40;;;2.90;;
21202;SDS011;10759;51.982;9.232;2023-06-14T13:38:27;5.40;;;3.50;;
21202;SDS011;10759;51.982;9.232;2023-06-14T13:40:55;4.55;;;3.00;;
21202;SDS011;10759;51.982;9.232;2023-06-14T13:43:22;5.22;;;2.97;;
21202;SDS011;10759;51.982;9.232;2023-06-14T13:45:50;3.33;;;3.03;;
21202;SDS011;10759;51.982;9.232;2023-06-14T13:48:19;4.25;;;2.70;;
21202;SDS011;10759;51.982;9.232;2023-06-14T13:50:48;3.33;;;3.10;;
21202;SDS011;10759;51.982;9.232;2023-06-14T13:53:16;3.65;;;3.30;;
21202;SDS011;10759;51.982;9.232;2023-06-14T13:55:44;3.95;;;3.10;;
21202;SDS011;10759;51.982;9.232;2023-06-14T13:58:12;4.85;;;3.50;;
21202;SDS011;10759;51.982;9.232;2023-06-14T14:00:40;3.45;;;3.15;;
21202;SDS011;10759;51.982;9.232;2023-06-14T14:03:08;5.20;;;3.47;;
21202;SDS011;10759;51.982;9.232;2023-06-14T14:05:37;3.97;;;3.47;;
21202;SDS011;10759;51.982;9.232;2023-06-14T14:08:05;4.82;;;3.60;;
21202;SDS011;10759;51.982;9.232;2023-06-14T14:10:33;3.85;;;3.55;;
21202;SDS011;10759;51.982;9.232;2023-06-14T14:13:01;4.82;;;3.55;;
21202;SDS011;10759;51.982;9.232;2023-06-14T14:15:29;4.68;;;3.83;;
21202;SDS011;10759;51.982;9.232;2023-06-14T14:17:58;4.17;;;3.80;;
21202;SDS011;10759;51.982;9.232;2023-06-14T14:20:30;7.38;;;3.83;;
21202;SDS011;10759;51.982;9.232;2023-06-14T14:23:00;4.05;;;3.72;;
21202;SDS011;10759;51.982;9.232;2023-06-14T14:25:28;4.03;;;3.70;;
21202;SDS011;10759;51.982;9.232;2023-06-14T14:27:56;4.13;;;3.72;;
21202;SDS011;10759;51.982;9.232;2023-06-14T14:30:24;7.28;;;5.00;;
21202;SDS011;10759;51.982;9.232;2023-06-14T14:32:52;4.15;;;3.85;;
21202;SDS011;10759;51.982;9.232;2023-06-14T14:35:20;4.70;;;3.70;;
21202;SDS011;10759;51.982;9.232;2023-06-14T14:37:51;4.18;;;3.65;;
21202;SDS011;10759;51.982;9.232;2023-06-14T14:40:21;4.10;;;3.67;;
21202;SDS011;10759;51.982;9.232;2023-06-14T14:42:49;5.18;;;4.10;;
21202;SDS011;10759;51.982;9.232;2023-06-14T14:45:17;6.68;;;3.40;;
21202;SDS011;10759;51.982;9.232;2023-06-14T14:47:45;4.97;;;4.00;;
21202;SDS011;10759;51.982;9.232;2023-06-14T14:50:13;6.13;;;4.13;;
21202;SDS011;10759;51.982;9.232;2023-06-14T14:52:43;4.32;;;3.58;;
21202;SDS011;10759;51.982;9.232;2023-06-14T14:55:11;4.75;;;4.32;;
21202;SDS011;10759;51.982;9.232;2023-06-14T14:57:40;4.38;;;4.00;;
21202;SDS011;10759;51.982;9.232;2023-06-14T15:00:09;4.10;;;3.80;;
21202;SDS011;10759;51.982;9.232;2023-06-14T15:02:37;4.30;;;3.92;;
21202;SDS011;10759;51.982;9.232;2023-06-14T15:05:05;5.43;;;4.25;;
21202;SDS011;10759;51.982;9.232;2023-06-14T15:07:34;4.85;;;4.32;;
21202;SDS011;10759;51.982;9.232;2023-06-14T15:10:01;4.85;;;4.32;;
21202;SDS011;10759;51.982;9.232;2023-06-14T15:12:30;6.63;;;4.20;;
21202;SDS011;10759;51.982;9.232;2023-06-14T15:15:00;5.40;;;4.35;;
21202;SDS011;10759;51.982;9.232;2023-06-14T15:17:28;6.25;;;4.85;;
21202;SDS011;10759;51.982;9.232;2023-06-14T15:19:56;6.20;;;4.28;;
21202;SDS011;10759;51.982;9.232;2023-06-14T15:22:24;8.00;;;4.60;;
21202;SDS011;10759;51.982;9.232;2023-06-14T15:24:52;4.53;;;4.10;;
21202;SDS011;10759;51.982;9.232;2023-06-14T15:27:20;4.38;;;3.95;;
21202;SDS011;10759;51.982;9.232;2023-06-14T15:29:47;5.60;;;4.07;;